LIVE Streaming HD
Get Adobe Flash player
Annunci di Google
DNA SURF-SHOP
Annunci di Google
Annunci
BodemaAuto s.r.l
Annunci
Dati meteo stazione (refresh automatico ogni minuto)
Latina(LT) VENTO: VELOCITÀ   PIOGGIA: QTA GIORNO TEMPERATURA: ATTUALE
SPOT: Latina lido
(Hotel Tirreno) Posizione su Googlemap: Latitudine 41.41 Longitudine 12.84
RAFFICA MASSIMA: QTA MENSILE: MASSIMA:
VELOCITÀ MEDIA: QTA ANNUALE: MINIMA:
DIREZIONE: UMIDITÀ: WIND CHILL:
TIPO: DEW POINT:
BEAUFORT: PRESSIONE:
I nostri partner
Annunci Privati
Latina(LT) nelle ultime ore
Applica filtri in visualizzazione Intervallo delle letture nelle ultime

Ora Direzione Vento Velocita' Vento Media Vento Raffica Max. Temperatura Wind Chill Pioggia Pressione
07:38:4376 °(ENE)1.2 Kts0.3 Kts26.4 Kts21.2 °C20.7 °C19.4 mm1011 Hpa
07:34:3876 °(ENE)0 Kts0.3 Kts26.4 Kts21.2 °C20.7 °C19.4 mm1011 Hpa
07:30:2076 °(ENE)0.3 Kts1.2 Kts26.4 Kts21.2 °C20.3 °C19.4 mm1011 Hpa
07:24:1176 °(ENE)1.2 Kts3 Kts26.4 Kts21.2 °C19.3 °C19.4 mm1010.9 Hpa
07:20:0792 °(E)3.8 Kts3.8 Kts26.4 Kts21.2 °C18.7 °C19.4 mm1010.9 Hpa
07:14:01101 °(E)1.2 Kts3.8 Kts26.4 Kts21.3 °C18.9 °C19.4 mm1011 Hpa
07:09:5696 °(E)3.8 Kts3 Kts26.4 Kts21.3 °C19.2 °C19.4 mm1010.8 Hpa
07:03:4793 °(E)3 Kts3 Kts26.4 Kts21.2 °C19.4 °C19.4 mm1010.7 Hpa
06:59:4272 °(ENE)2.1 Kts3 Kts26.4 Kts21.4 °C19.5 °C19.4 mm1010.9 Hpa
06:53:3473 °(ENE)5.6 Kts3.8 Kts26.4 Kts21.2 °C19 °C19.4 mm1010.9 Hpa
06:49:3090 °(E)1.2 Kts3.8 Kts26.4 Kts21.2 °C18.7 °C19.4 mm1010.9 Hpa
06:44:3595 °(E)3.8 Kts3.8 Kts26.4 Kts20.9 °C18.5 °C19.4 mm1010.7 Hpa
06:40:3171 °(ENE)3 Kts3.8 Kts26.4 Kts20.7 °C18.4 °C19.4 mm1010.6 Hpa
06:34:0978 °(ENE)3.8 Kts3.8 Kts26.4 Kts20.8 °C18.3 °C19.4 mm1010.5 Hpa
06:29:2588 °(E)7.3 Kts3.8 Kts26.4 Kts20.7 °C18.2 °C19.4 mm1010.7 Hpa
06:25:2055 °(NE)3 Kts3.8 Kts26.4 Kts20.7 °C18.2 °C19.4 mm1011 Hpa
06:19:0562 °(ENE)3.8 Kts4.7 Kts26.4 Kts20.7 °C17.7 °C19.4 mm1011.2 Hpa
06:14:5863 °(ENE)7.3 Kts3 Kts26.4 Kts20.6 °C18.6 °C19.4 mm1011.3 Hpa
06:08:4952 °(NE)2.1 Kts0.3 Kts26.4 Kts20.4 °C19.8 °C19.4 mm1011 Hpa
06:04:45286 °(WNW)0 Kts1.2 Kts26.4 Kts20.5 °C19.4 °C19.4 mm1011.2 Hpa
05:58:10286 °(WNW)0 Kts6.4 Kts26.4 Kts20.7 °C17.2 °C19.4 mm1012 Hpa
05:54:05258 °(WSW)3 Kts12.5 Kts26.4 Kts20.9 °C16 °C18.8 mm1012.3 Hpa
05:49:58252 °(WSW)8.2 Kts10.8 Kts26.4 Kts21.9 °C17.8 °C17.2 mm1013 Hpa
05:43:40271 °(W)13.4 Kts3.8 Kts17.7 Kts23.2 °C21.4 °C8.4 mm1012.6 Hpa